M/T Goviken — 9HA2718 — position and weather

sailwx.info

Track history (hours):
 
Tides and Currents Weather Stations Pressure Air Temp Water Temp Dewpoint Dewpoint Depression Visibility Wind Speed Wind Dir Waves Ship Positions

M/T Goviken

Last reported at 2015-Mar-06 10:33 UTC. Time now 2015-Mar-06 11:10 UTC.
Position N 52°00' E 003°48'.

Length 88 m; draft 5.9 m.

Type: Ship (hazmat cat C). MMSI: 215389000.

Date/timePositionNaut miles runAvg speedWind from/ knotsBaromVisibWave heightAir tempDewpointWater temp
2015-Mar-06 10:33N 52°00' E 003°48'5 5.2
2015-Mar-06 09:33N 52°05' E 003°47'8 8.4
2015-Mar-06 08:33N 52°14' E 003°46'9 9.1
2015-Mar-06 07:34N 52°23' E 003°49'9 8.8
2015-Mar-06 06:33N 52°31' E 003°52'11 9.2
2015-Mar-06 05:25N 52°42' E 003°55'33 8.2
2015-Mar-06 01:20N 53°10' E 004°23'17 9.2
2015-Mar-05 23:32N 53°26' E 004°33'9 9.2
2015-Mar-05 22:33N 53°34' E 004°38'13 8.5
2015-Mar-05 21:04N 53°46' E 004°45'5 8.2
2015-Mar-05 20:31N 53°50' E 004°48'8 8.6
2015-Mar-05 19:33N 53°58' E 004°53'8 8.2
2015-Mar-05 18:33N 54°06' E 004°58'8 8.1
2015-Mar-05 17:33N 54°12' E 005°06'9 8.7
2015-Mar-05 16:31N 54°19' E 005°17'269 9.0
2015-Mar-04 10:33N 58°48' E 005°06'9 9.3
2015-Mar-04 09:33N 58°57' E 005°09'8 8.5
2015-Mar-04 08:33N 59°05' E 005°16'9 9.1
2015-Mar-04 07:33N 59°10' E 005°30'6 5.7
2015-Mar-04 06:28N 59°16' E 005°30'0 0.0
2015-Mar-04 05:22N 59°16' E 005°30'0 0.0
2015-Mar-04 02:03N 59°16' E 005°30'0 0.0
2015-Mar-04 01:31N 59°16' E 005°30'0 0.0
2015-Mar-04 00:31N 59°16' E 005°30'0 0.0
2015-Mar-03 12:32N 59°16' E 005°30'3 2.7
2015-Mar-03 11:31N 59°14' E 005°31'0 0.1
2015-Mar-03 10:31N 59°14' E 005°30'0 0.0
2015-Mar-03 09:31N 59°14' E 005°30'0 0.0
2015-Mar-03 08:31N 59°14' E 005°30'0 0.0
2015-Mar-03 07:31N 59°14' E 005°30'0 0.0
2015-Mar-03 06:31N 59°14' E 005°30'0 0.0
2015-Mar-03 05:31N 59°14' E 005°30'0 0.0
2015-Mar-03 04:25N 59°14' E 005°30'0 0.0
2015-Mar-03 03:28N 59°14' E 005°30'0 0.0
2015-Mar-03 02:13N 59°14' E 005°30'0 0.1
2015-Mar-03 01:34N 59°14' E 005°30'0 0.0
2015-Mar-03 00:31N 59°13' E 005°30'0 0.1
2015-Mar-02 23:31N 59°13' E 005°31'0 0.0
2015-Mar-02 21:10N 59°14' E 005°31'0 0.0
2015-Mar-02 20:32N 59°14' E 005°31'7 7.6
2015-Mar-02 19:33N 59°06' E 005°27'9 9.2
2015-Mar-02 18:33N 59°01' E 005°13'1110.7
2015-Mar-02 17:33N 58°51' E 005°07'26610.1
2015-Mar-01 15:09N 54°25' E 005°25'711.0
2015-Mar-01 14:31N 54°19' E 005°17'1110.9
2015-Mar-01 13:32N 54°11' E 005°05'1010.3
2015-Mar-01 12:33N 54°02' E 004°56'1110.5
2015-Mar-01 11:33N 53°52' E 004°54'1110.5
2015-Mar-01 10:32N 53°41' E 004°51'1010.4
2015-Mar-01 09:33N 53°31' E 004°47'1010.2
2015-Mar-01 08:33N 53°22' E 004°39'20 9.7
2015-Mar-01 06:31N 53°04' E 004°26'12 9.7
2015-Mar-01 05:15N 52°53' E 004°16'26 9.7
2015-Mar-01 02:33N 52°31' E 003°55'1010.2
2015-Mar-01 01:33N 52°21' E 003°52'1010.4
2015-Mar-01 00:33N 52°10' E 003°54'9 8.6
2015-Feb-28 23:33N 52°02' E 003°57'1010.5
2015-Feb-28 22:33N 51°56' E 004°11'4 4.1
2015-Feb-28 21:33N 51°53' E 004°15'0 0.2
2015-Feb-28 20:29N 51°53' E 004°15'0 0.0
2015-Feb-28 19:14N 51°53' E 004°15'0 0.0
2015-Feb-28 18:05N 51°53' E 004°15'0 0.0
2015-Feb-28 17:17N 51°53' E 004°15'0 0.0
2015-Feb-28 16:33N 51°53' E 004°15'0 0.0
2015-Feb-28 15:32N 51°53' E 004°15'0 0.0
2015-Feb-28 14:26N 51°53' E 004°15'0 0.0
2015-Feb-28 13:14N 51°53' E 004°15'0 0.0
2015-Feb-28 12:32N 51°53' E 004°15'0 0.0
2015-Feb-28 11:32N 51°53' E 004°15'0 0.0
2015-Feb-28 10:32N 51°53' E 004°15'0 0.0
2015-Feb-28 09:32N 51°53' E 004°15'0 0.0
2015-Feb-28 08:20N 51°53' E 004°15'0 0.0
2015-Feb-28 07:23N 51°53' E 004°15'0 0.0
2015-Feb-28 06:32N 51°53' E 004°15'0 0.0
2015-Feb-28 05:29N 51°53' E 004°15'0 0.0
2015-Feb-28 04:32N 51°53' E 004°15'0 0.0
2015-Feb-28 03:29N 51°53' E 004°15'0 0.0
2015-Feb-28 02:29N 51°53' E 004°15'0 0.0
2015-Feb-28 01:32N 51°53' E 004°15'0 0.0
2015-Feb-28 00:32N 51°53' E 004°15'0 0.0
2015-Feb-27 23:29N 51°53' E 004°15'0 0.0
2015-Feb-27 22:20N 51°53' E 004°15'0 0.0
2015-Feb-27 21:23N 51°53' E 004°15'0 0.0
2015-Feb-27 20:33N 51°53' E 004°15'1 1.3
2015-Feb-27 19:33N 51°54' E 004°14'4 4.0
2015-Feb-27 18:33N 51°57' E 004°10'7 7.1
2015-Feb-27 17:33N 51°60' E 003°59'7 6.8
2015-Feb-27 16:33N 52°00' E 003°48'6 5.7
2015-Feb-27 15:33N 52°06' E 003°46'7 6.6
2015-Feb-27 14:34N 52°12' E 003°46'6 6.3
2015-Feb-27 13:33N 52°19' E 003°47'7 7.2
2015-Feb-27 12:34N 52°26' E 003°50'9 8.1
2015-Feb-27 11:29N 52°34' E 003°52'8 8.3
2015-Feb-27 10:33N 52°42' E 003°55'8 8.3
2015-Feb-27 09:33N 52°50' E 003°58'8 8.0
2015-Feb-27 08:31N 52°58' E 004°02'8 7.7
2015-Feb-27 07:32N 53°03' E 004°11'30 7.6
2015-Feb-27 03:33N 53°29' E 004°35'9 8.7
2015-Feb-27 02:32N 53°38' E 004°40'21 9.0
2015-Feb-27 00:13N 53°57' E 004°52'6 8.9
2015-Feb-26 23:33N 54°03' E 004°55'9 8.7
2015-Feb-26 22:33N 54°10' E 005°03'9 9.0
2015-Feb-26 21:33N 54°18' E 005°11'66 6.6
2015-Feb-26 11:33N 55°22' E 005°39'7 6.6
2015-Feb-26 10:32N 55°28' E 005°40'201 9.1
2015-Feb-25 12:33N 58°49' E 005°06'9 8.7
2015-Feb-25 11:33N 58°57' E 005°09'8 7.7
2015-Feb-25 10:33N 59°04' E 005°15'8 8.4
2015-Feb-25 09:33N 59°09' E 005°29'5 0.3
2015-Feb-24 16:32N 59°14' E 005°31'9 9.3
2015-Feb-24 15:33N 59°05' E 005°24'9 9.0
2015-Feb-24 14:33N 58°59' E 005°11'9 9.1
2015-Feb-24 13:33N 58°50' E 005°07'  
Track history (hours):
 
Tides and Currents Weather Stations Pressure Air Temp Water Temp Dewpoint Dewpoint Depression Visibility Wind Speed Wind Dir Waves Ship Positions

M/T Goviken

Last reported at 2015-Mar-06 10:33 UTC. Time now 2015-Mar-06 11:10 UTC.
Position N 52°00' E 003°48'.

Length 88 m; draft 5.9 m.

Type: Ship (hazmat cat C). MMSI: 215389000.

Date/timePositionNaut miles runAvg speedWind from/ knotsBaromVisibWave heightAir tempDewpointWater temp
2015-Mar-06 10:33N 52°00' E 003°48'5 5.2
2015-Mar-06 09:33N 52°05' E 003°47'8 8.4
2015-Mar-06 08:33N 52°14' E 003°46'9 9.1
2015-Mar-06 07:34N 52°23' E 003°49'9 8.8
2015-Mar-06 06:33N 52°31' E 003°52'11 9.2
2015-Mar-06 05:25N 52°42' E 003°55'33 8.2
2015-Mar-06 01:20N 53°10' E 004°23'17 9.2
2015-Mar-05 23:32N 53°26' E 004°33'9 9.2
2015-Mar-05 22:33N 53°34' E 004°38'13 8.5
2015-Mar-05 21:04N 53°46' E 004°45'5 8.2
2015-Mar-05 20:31N 53°50' E 004°48'8 8.6
2015-Mar-05 19:33N 53°58' E 004°53'8 8.2
2015-Mar-05 18:33N 54°06' E 004°58'8 8.1
2015-Mar-05 17:33N 54°12' E 005°06'9 8.7
2015-Mar-05 16:31N 54°19' E 005°17'269 9.0
2015-Mar-04 10:33N 58°48' E 005°06'9 9.3
2015-Mar-04 09:33N 58°57' E 005°09'8 8.5
2015-Mar-04 08:33N 59°05' E 005°16'9 9.1
2015-Mar-04 07:33N 59°10' E 005°30'6 5.7
2015-Mar-04 06:28N 59°16' E 005°30'0 0.0
2015-Mar-04 05:22N 59°16' E 005°30'0 0.0
2015-Mar-04 02:03N 59°16' E 005°30'0 0.0
2015-Mar-04 01:31N 59°16' E 005°30'0 0.0
2015-Mar-04 00:31N 59°16' E 005°30'0 0.0
2015-Mar-03 12:32N 59°16' E 005°30'3 2.7
2015-Mar-03 11:31N 59°14' E 005°31'0 0.1
2015-Mar-03 10:31N 59°14' E 005°30'0 0.0
2015-Mar-03 09:31N 59°14' E 005°30'0 0.0
2015-Mar-03 08:31N 59°14' E 005°30'0 0.0
2015-Mar-03 07:31N 59°14' E 005°30'0 0.0
2015-Mar-03 06:31N 59°14' E 005°30'0 0.0
2015-Mar-03 05:31N 59°14' E 005°30'0 0.0
2015-Mar-03 04:25N 59°14' E 005°30'0 0.0
2015-Mar-03 03:28N 59°14' E 005°30'0 0.0
2015-Mar-03 02:13N 59°14' E 005°30'0 0.1
2015-Mar-03 01:34N 59°14' E 005°30'0 0.0
2015-Mar-03 00:31N 59°13' E 005°30'0 0.1
2015-Mar-02 23:31N 59°13' E 005°31'0 0.0
2015-Mar-02 21:10N 59°14' E 005°31'0 0.0
2015-Mar-02 20:32N 59°14' E 005°31'7 7.6
2015-Mar-02 19:33N 59°06' E 005°27'9 9.2
2015-Mar-02 18:33N 59°01' E 005°13'1110.7
2015-Mar-02 17:33N 58°51' E 005°07'26610.1
2015-Mar-01 15:09N 54°25' E 005°25'711.0
2015-Mar-01 14:31N 54°19' E 005°17'1110.9
2015-Mar-01 13:32N 54°11' E 005°05'1010.3
2015-Mar-01 12:33N 54°02' E 004°56'1110.5
2015-Mar-01 11:33N 53°52' E 004°54'1110.5
2015-Mar-01 10:32N 53°41' E 004°51'1010.4
2015-Mar-01 09:33N 53°31' E 004°47'1010.2
2015-Mar-01 08:33N 53°22' E 004°39'20 9.7
2015-Mar-01 06:31N 53°04' E 004°26'12 9.7
2015-Mar-01 05:15N 52°53' E 004°16'26 9.7
2015-Mar-01 02:33N 52°31' E 003°55'1010.2
2015-Mar-01 01:33N 52°21' E 003°52'1010.4
2015-Mar-01 00:33N 52°10' E 003°54'9 8.6
2015-Feb-28 23:33N 52°02' E 003°57'1010.5
2015-Feb-28 22:33N 51°56' E 004°11'4 4.1
2015-Feb-28 21:33N 51°53' E 004°15'0 0.2
2015-Feb-28 20:29N 51°53' E 004°15'0 0.0
2015-Feb-28 19:14N 51°53' E 004°15'0 0.0
2015-Feb-28 18:05N 51°53' E 004°15'0 0.0
2015-Feb-28 17:17N 51°53' E 004°15'0 0.0
2015-Feb-28 16:33N 51°53' E 004°15'0 0.0
2015-Feb-28 15:32N 51°53' E 004°15'0 0.0
2015-Feb-28 14:26N 51°53' E 004°15'0 0.0
2015-Feb-28 13:14N 51°53' E 004°15'0 0.0
2015-Feb-28 12:32N 51°53' E 004°15'0 0.0
2015-Feb-28 11:32N 51°53' E 004°15'0 0.0
2015-Feb-28 10:32N 51°53' E 004°15'0 0.0
2015-Feb-28 09:32N 51°53' E 004°15'0 0.0
2015-Feb-28 08:20N 51°53' E 004°15'0 0.0
2015-Feb-28 07:23N 51°53' E 004°15'0 0.0
2015-Feb-28 06:32N 51°53' E 004°15'0 0.0
2015-Feb-28 05:29N 51°53' E 004°15'0 0.0
2015-Feb-28 04:32N 51°53' E 004°15'0 0.0
2015-Feb-28 03:29N 51°53' E 004°15'0 0.0
2015-Feb-28 02:29N 51°53' E 004°15'0 0.0
2015-Feb-28 01:32N 51°53' E 004°15'0 0.0
2015-Feb-28 00:32N 51°53' E 004°15'0 0.0
2015-Feb-27 23:29N 51°53' E 004°15'0 0.0
2015-Feb-27 22:20N 51°53' E 004°15'0 0.0
2015-Feb-27 21:23N 51°53' E 004°15'0 0.0
2015-Feb-27 20:33N 51°53' E 004°15'1 1.3
2015-Feb-27 19:33N 51°54' E 004°14'4 4.0
2015-Feb-27 18:33N 51°57' E 004°10'7 7.1
2015-Feb-27 17:33N 51°60' E 003°59'7 6.8
2015-Feb-27 16:33N 52°00' E 003°48'6 5.7
2015-Feb-27 15:33N 52°06' E 003°46'7 6.6
2015-Feb-27 14:34N 52°12' E 003°46'6 6.3
2015-Feb-27 13:33N 52°19' E 003°47'7 7.2
2015-Feb-27 12:34N 52°26' E 003°50'9 8.1
2015-Feb-27 11:29N 52°34' E 003°52'8 8.3
2015-Feb-27 10:33N 52°42' E 003°55'8 8.3
2015-Feb-27 09:33N 52°50' E 003°58'8 8.0
2015-Feb-27 08:31N 52°58' E 004°02'8 7.7
2015-Feb-27 07:32N 53°03' E 004°11'30 7.6
2015-Feb-27 03:33N 53°29' E 004°35'9 8.7
2015-Feb-27 02:32N 53°38' E 004°40'21 9.0
2015-Feb-27 00:13N 53°57' E 004°52'6 8.9
2015-Feb-26 23:33N 54°03' E 004°55'9 8.7
2015-Feb-26 22:33N 54°10' E 005°03'9 9.0
2015-Feb-26 21:33N 54°18' E 005°11'66 6.6
2015-Feb-26 11:33N 55°22' E 005°39'7 6.6
2015-Feb-26 10:32N 55°28' E 005°40'201 9.1
2015-Feb-25 12:33N 58°49' E 005°06'9 8.7
2015-Feb-25 11:33N 58°57' E 005°09'8 7.7
2015-Feb-25 10:33N 59°04' E 005°15'8 8.4
2015-Feb-25 09:33N 59°09' E 005°29'5 0.3
2015-Feb-24 16:32N 59°14' E 005°31'9 9.3
2015-Feb-24 15:33N 59°05' E 005°24'9 9.0
2015-Feb-24 14:33N 58°59' E 005°11'9 9.1
2015-Feb-24 13:33N 58°50' E 005°07'  

Dump ship's entire track history